Time;durP1;ratioP1;P1;durP2;ratioP2;P2;SDS_P1;SDS_P2;PMS_P1;PMS_P2;Temp;Humidity;BMP_temperature;BMP_pressure;BME280_temperature;BME280_humidity;BME280_pressure;Samples;Min_cycle;Max_cycle;Signal;HPM_P1;HPM_P2
2021/04/27 00:02:24;;;;;;;17.23;11.18;;;;;;;9.55;100.00;101691.56;5012206;28;20069;-60
2021/04/27 00:04:49;;;;;;;15.75;9.43;;;;;;;9.53;100.00;101677.28;5012203;28;20045;-60
2021/04/27 00:07:16;;;;;;;13.93;9.80;;;;;;;9.52;100.00;101681.06;5012377;28;20698;-62
2021/04/27 00:09:41;;;;;;;13.90;9.48;;;;;;;9.47;100.00;101683.63;5027388;28;20132;-62
2021/04/27 00:12:08;;;;;;;17.48;9.07;;;;;;;9.42;100.00;101687.00;5012215;28;20038;-62
2021/04/27 00:14:34;;;;;;;12.35;8.57;;;;;;;9.38;100.00;101684.91;5012094;28;20042;-62
2021/04/27 00:16:59;;;;;;;9.68;8.38;;;;;;;9.33;100.00;101683.66;5012178;28;20092;-62
2021/04/27 00:19:25;;;;;;;13.07;8.88;;;;;;;9.28;100.00;101680.72;5012155;28;20095;-61
2021/04/27 00:21:51;;;;;;;17.83;8.75;;;;;;;9.23;100.00;101672.34;5012076;28;20049;-62
2021/04/27 00:24:17;;;;;;;12.57;8.30;;;;;;;9.22;100.00;101673.41;5012102;28;20141;-63
2021/04/27 00:26:44;;;;;;;15.65;9.30;;;;;;;9.20;100.00;101675.50;5011900;28;20559;-62
2021/04/27 00:29:09;;;;;;;14.00;8.98;;;;;;;9.17;100.00;101670.47;5011966;28;20492;-63
2021/04/27 00:31:35;;;;;;;13.32;8.57;;;;;;;9.19;100.00;101664.78;5027039;28;20077;-62
2021/04/27 00:34:01;;;;;;;16.23;9.60;;;;;;;9.18;100.00;101663.13;5011957;28;20045;-62
2021/04/27 00:36:27;;;;;;;18.13;8.20;;;;;;;9.17;100.00;101662.28;5011790;28;20030;-62
2021/04/27 00:38:54;;;;;;;10.02;8.13;;;;;;;9.15;100.00;101669.84;5011784;28;20603;-62
2021/04/27 00:41:20;;;;;;;13.43;9.00;;;;;;;9.15;100.00;101663.56;5011796;28;20048;-62
2021/04/27 00:43:46;;;;;;;13.32;8.00;;;;;;;9.13;100.00;101661.03;5011809;28;20048;-63
2021/04/27 00:46:13;;;;;;;14.95;8.23;;;;;;;9.11;100.00;101660.41;5011615;28;20049;-60
2021/04/27 00:48:39;;;;;;;15.40;10.45;;;;;;;9.11;100.00;101652.25;5011622;28;20046;-62
2021/04/27 00:51:05;;;;;;;13.85;10.73;;;;;;;9.10;100.00;101650.56;5011817;28;20045;-62
2021/04/27 00:53:31;;;;;;;15.75;11.60;;;;;;;9.06;100.00;101654.78;5011466;28;20523;-63
2021/04/27 00:55:57;;;;;;;18.52;10.88;;;;;;;9.03;100.00;101644.31;5011404;28;20041;-63
2021/04/27 00:58:24;;;;;;;16.17;10.60;;;;;;;9.01;100.00;101636.31;5011853;28;20038;-61
2021/04/27 01:00:51;;;;;;;16.17;10.57;;;;;;;8.97;100.00;101642.41;4986181;28;759359;-62
2021/04/27 01:03:19;;;;;;;19.98;11.32;;;;;;;8.93;100.00;101643.91;5012301;28;20175;-61
2021/04/27 01:05:45;;;;;;;14.93;11.30;;;;;;;8.86;100.00;101637.63;5011453;28;20048;-60
2021/04/27 01:08:31;;;;;;;18.08;11.57;;;;;;;8.79;100.00;101636.78;5012306;28;20125;-63
2021/04/27 01:11:23;;;;;;;16.55;10.70;;;;;;;8.73;100.00;101633.84;5012248;28;20034;-62
2021/04/27 01:14:01;;;;;;;16.30;10.73;;;;;;;8.69;100.00;101627.16;5012156;28;20449;-62
2021/04/27 01:16:30;;;;;;;20.25;11.95;;;;;;;8.63;100.00;101627.16;5011996;28;20065;-62
2021/04/27 01:18:56;;;;;;;15.60;11.60;;;;;;;8.56;100.00;101627.16;5012167;28;20045;-62
2021/04/27 01:21:25;;;;;;;16.20;10.95;;;;;;;8.50;100.00;101627.97;5012084;28;20377;-61
2021/04/27 01:24:14;;;;;;;19.02;10.80;;;;;;;8.48;100.00;101630.06;5011894;28;20085;-62
2021/04/27 01:26:39;;;;;;;17.75;10.98;;;;;;;8.47;100.00;101628.41;5011951;28;20034;-63
2021/04/27 01:29:08;;;;;;;22.48;12.10;;;;;;;8.45;100.00;101615.00;5011811;28;20034;-60
2021/04/27 01:31:36;;;;;;;17.70;11.90;;;;;;;8.44;100.00;101617.94;5011824;28;20128;-60
2021/04/27 01:34:03;;;;;;;18.50;11.32;;;;;;;8.42;100.00;101612.72;5011792;28;20040;-61
2021/04/27 01:36:30;;;;;;;16.38;11.70;;;;;;;8.42;100.00;101614.59;5011742;28;20141;-62
2021/04/27 01:38:56;;;;;;;20.45;11.40;;;;;;;8.40;100.00;101611.25;5011727;28;20038;-62
2021/04/27 01:41:22;;;;;;;15.07;10.23;;;;;;;8.39;100.00;101604.13;5012076;28;20038;-60
2021/04/27 01:43:49;;;;;;;15.20;9.77;;;;;;;8.34;100.00;101591.16;5011771;28;20042;-63
2021/04/27 01:46:15;;;;;;;14.52;10.07;;;;;;;8.35;100.00;101602.88;5011434;28;20034;-63
2021/04/27 01:48:41;;;;;;;19.33;10.55;;;;;;;8.34;100.00;101593.03;5011582;28;20048;-62
2021/04/27 01:51:10;;;;;;;19.23;12.52;;;;;;;8.36;100.00;101599.09;5011776;28;20041;-61
2021/04/27 01:53:41;;;;;;;15.48;12.05;;;;;;;8.36;100.00;101599.09;5011588;28;20073;-61
2021/04/27 01:56:07;;;;;;;22.25;12.68;;;;;;;8.35;100.00;101594.72;5011355;28;20044;-62
2021/04/27 01:58:33;;;;;;;16.85;11.20;;;;;;;8.33;100.00;101591.31;5011206;28;20033;-61
2021/04/27 02:01:00;;;;;;;19.85;11.35;;;;;;;8.29;100.00;101596.34;5011501;28;20493;-62
2021/04/27 02:03:28;;;;;;;17.40;11.73;;;;;;;8.28;100.00;101593.81;5011270;28;20042;-61
2021/04/27 02:05:53;;;;;;;20.17;12.60;;;;;;;8.27;100.00;101589.44;5011123;28;20496;-62
2021/04/27 02:08:19;;;;;;;17.70;12.32;;;;;;;8.23;100.00;101582.72;5011338;28;20042;-63
2021/04/27 02:10:45;;;;;;;18.70;12.50;;;;;;;8.18;100.00;101586.09;5011266;28;20124;-62
2021/04/27 02:13:16;;;;;;;18.00;12.48;;;;;;;8.13;100.00;101585.84;5011133;28;20041;-62
2021/04/27 02:15:43;;;;;;;17.33;11.38;;;;;;;8.08;100.00;101586.47;5011181;28;20148;-62
2021/04/27 02:18:26;;;;;;;17.33;12.35;;;;;;;8.02;100.00;101571.00;5011122;28;20077;-62
2021/04/27 02:20:57;;;;;;;15.88;12.43;;;;;;;7.99;100.00;101576.84;5011128;28;20060;-62
2021/04/27 02:23:24;;;;;;;16.92;11.95;;;;;;;7.96;100.00;101566.38;5011078;28;20080;-60
2021/04/27 02:25:53;;;;;;;18.55;12.68;;;;;;;7.92;100.00;101573.28;5011018;28;20120;-61
2021/04/27 02:28:19;;;;;;;20.52;12.35;;;;;;;7.91;100.00;101568.03;5026202;28;20046;-62
2021/04/27 02:30:46;;;;;;;20.27;12.77;;;;;;;7.91;100.00;101563.44;5009699;28;20112;-62
2021/04/27 02:33:18;;;;;;;16.73;11.82;;;;;;;7.91;100.00;101563.44;5010915;28;20041;-61
2021/04/27 02:35:44;;;;;;;15.73;10.75;;;;;;;7.91;100.00;101568.03;5011123;28;20068;-62
2021/04/27 02:38:11;;;;;;;19.92;11.98;;;;;;;7.88;100.00;101552.97;5010924;28;20041;-62
2021/04/27 02:40:38;;;;;;;17.77;10.93;;;;;;;7.86;100.00;101560.50;5011033;28;20042;-61
2021/04/27 02:43:04;;;;;;;14.32;11.25;;;;;;;7.85;100.00;101553.41;5010775;28;20534;-60
2021/04/27 02:45:32;;;;;;;15.48;10.70;;;;;;;7.83;100.00;101544.63;5010812;28;20419;-60
2021/04/27 02:48:05;;;;;;;15.02;10.60;;;;;;;7.82;100.00;101554.66;5010811;28;20045;-60
2021/04/27 02:50:32;;;;;;;16.83;11.02;;;;;;;7.80;100.00;101553.16;5010849;28;20625;-61
2021/04/27 02:52:58;;;;;;;13.70;10.32;;;;;;;7.78;100.00;101547.09;5011110;28;20034;-62
2021/04/27 02:55:24;;;;;;;16.95;10.77;;;;;;;7.76;100.00;101543.75;5010761;28;20033;-61
2021/04/27 02:57:49;;;;;;;14.25;10.40;;;;;;;7.72;100.00;101547.94;5010933;28;20566;-61
2021/04/27 03:00:15;;;;;;;16.15;11.00;;;;;;;7.70;100.00;101550.03;5010541;28;20050;-62
2021/04/27 03:02:41;;;;;;;17.73;10.93;;;;;;;7.70;100.00;101536.41;5010571;28;20045;-62
2021/04/27 03:05:07;;;;;;;19.08;11.50;;;;;;;7.67;100.00;101534.97;5010673;28;20045;-61
2021/04/27 03:07:33;;;;;;;20.88;11.52;;;;;;;7.69;100.00;101540.19;5010770;28;20083;-61
2021/04/27 03:09:59;;;;;;;14.65;10.93;;;;;;;7.68;100.00;101535.78;5010981;28;20412;-63
2021/04/27 03:12:24;;;;;;;15.90;11.45;;;;;;;7.64;100.00;101534.53;5010667;28;20057;-62
2021/04/27 03:14:50;;;;;;;17.48;11.25;;;;;;;7.64;100.00;101534.53;5010578;28;20037;-60
2021/04/27 03:17:15;;;;;;;15.77;11.27;;;;;;;7.61;100.00;101529.50;5010570;28;20420;-63
2021/04/27 03:19:41;;;;;;;16.98;12.05;;;;;;;7.59;100.00;101526.97;5010561;28;20045;-63
2021/04/27 03:22:07;;;;;;;18.83;11.73;;;;;;;7.57;100.00;101527.19;5010653;28;20033;-62
2021/04/27 03:24:33;;;;;;;16.13;10.95;;;;;;;7.57;100.00;101524.47;5010407;28;20044;-61
2021/04/27 03:26:58;;;;;;;21.27;12.25;;;;;;;7.57;100.00;101527.19;5010400;28;20052;-63
2021/04/27 03:29:24;;;;;;;19.67;12.15;;;;;;;7.57;100.00;101524.47;5011837;28;20038;-61
2021/04/27 03:31:49;;;;;;;20.63;12.35;;;;;;;7.56;100.00;101528.22;5014015;28;20128;-59
2021/04/27 03:34:15;;;;;;;18.45;12.63;;;;;;;7.54;100.00;101519.44;5013973;28;20113;-62
2021/04/27 03:36:41;;;;;;;17.05;11.90;;;;;;;7.53;100.00;101514.22;5013913;28;20442;-63
2021/04/27 03:39:07;;;;;;;14.38;11.05;;;;;;;7.50;100.00;101518.19;5014034;28;20475;-62
2021/04/27 03:41:32;;;;;;;24.73;12.60;;;;;;;7.48;100.00;101509.41;5013833;28;20041;-61
2021/04/27 03:43:58;;;;;;;16.35;11.27;;;;;;;7.46;100.00;101510.63;5013835;28;20494;-62
2021/04/27 03:46:24;;;;;;;16.38;11.65;;;;;;;7.44;100.00;101507.28;5013780;28;20045;-61
2021/04/27 03:48:49;;;;;;;16.02;10.88;;;;;;;7.40;100.00;101498.72;5013644;28;20552;-61
2021/04/27 03:51:15;;;;;;;19.27;11.68;;;;;;;7.39;100.00;101510.63;5013664;28;20484;-63
2021/04/27 03:53:41;;;;;;;16.85;11.32;;;;;;;7.36;100.00;101494.72;5013584;28;20049;-61
2021/04/27 03:56:07;;;;;;;18.63;11.82;;;;;;;7.34;100.00;101496.81;5013629;28;20034;-60
2021/04/27 03:58:33;;;;;;;16.92;11.65;;;;;;;7.32;100.00;101495.34;5013450;28;20045;-60
2021/04/27 04:00:59;;;;;;;16.90;11.45;;;;;;;7.29;100.00;101493.03;5013608;28;20073;-61
2021/04/27 04:03:25;;;;;;;18.60;12.27;;;;;;;7.28;100.00;101489.47;5013906;28;20037;-62
2021/04/27 04:05:51;;;;;;;20.40;12.63;;;;;;;7.29;100.00;101496.59;5013374;28;20046;-61
2021/04/27 04:08:16;;;;;;;17.33;11.98;;;;;;;7.28;100.00;101486.75;5013457;28;20041;-61
2021/04/27 04:10:43;;;;;;;16.30;12.02;;;;;;;7.29;100.00;101487.59;5013477;28;20519;-61
2021/04/27 04:13:09;;;;;;;21.08;13.02;;;;;;;7.30;100.00;101487.41;5013191;28;20052;-59
2021/04/27 04:15:35;;;;;;;17.25;12.88;;;;;;;7.32;100.00;101484.47;5013374;28;20042;-63
2021/04/27 04:18:00;;;;;;;17.80;11.93;;;;;;;7.32;100.00;101485.31;5028401;28;20057;-61
2021/04/27 04:20:26;;;;;;;22.27;13.23;;;;;;;7.31;100.00;101475.50;5013236;28;20553;-61
2021/04/27 04:22:52;;;;;;;18.20;11.90;;;;;;;7.29;100.00;101483.03;5013163;28;20396;-61
2021/04/27 04:25:19;;;;;;;23.63;12.77;;;;;;;7.25;100.00;101471.69;5013542;28;20146;-62
2021/04/27 04:27:45;;;;;;;21.88;11.52;;;;;;;7.22;100.00;101472.13;5013365;28;20460;-62
2021/04/27 04:30:15;;;;;;;21.08;12.77;;;;;;;7.20;100.00;101467.94;5012984;28;20033;-63
2021/04/27 04:32:41;;;;;;;19.58;12.32;;;;;;;7.17;100.00;101480.06;5012939;28;20087;-62
2021/04/27 04:35:08;;;;;;;24.20;13.35;;;;;;;7.14;100.00;101475.03;5012969;28;20113;-61
2021/04/27 04:37:35;;;;;;;18.08;12.10;;;;;;;7.13;100.00;101469.81;5013048;28;20782;-63
2021/04/27 04:40:01;;;;;;;19.42;13.48;;;;;;;7.11;100.00;101474.56;5012385;28;20041;-62
2021/04/27 04:42:26;;;;;;;19.90;13.02;;;;;;;7.09;100.00;101463.06;5010971;28;20038;-63
2021/04/27 04:44:53;;;;;;;18.67;12.05;;;;;;;7.05;100.00;101459.94;5012668;28;20480;-63
2021/04/27 04:47:19;;;;;;;18.23;12.73;;;;;;;7.05;100.00;101459.09;5012534;28;20476;-61
2021/04/27 04:49:45;;;;;;;20.70;13.40;;;;;;;7.03;100.00;101461.19;5012645;28;20049;-62
2021/04/27 04:52:10;;;;;;;21.63;14.23;;;;;;;7.01;100.00;101455.97;5012596;28;20046;-63
2021/04/27 04:54:37;;;;;;;19.27;12.77;;;;;;;7.01;100.00;101457.84;5012583;28;20070;-61
2021/04/27 04:57:03;;;;;;;19.95;13.48;;;;;;;6.98;100.00;101450.94;5012578;28;20603;-63
2021/04/27 04:59:29;;;;;;;17.90;14.20;;;;;;;6.99;100.00;101457.22;5012178;28;20058;-63
2021/04/27 05:01:54;;;;;;;21.77;13.68;;;;;;;6.99;100.00;101465.34;5012453;28;20068;-62
2021/04/27 05:04:20;;;;;;;21.67;13.85;;;;;;;6.98;100.00;101455.53;5027440;28;20045;-62
2021/04/27 05:06:45;;;;;;;22.10;13.10;;;;;;;6.99;100.00;101451.78;5012267;28;20038;-63
2021/04/27 05:09:12;;;;;;;24.60;14.48;;;;;;;6.98;100.00;101452.81;5012367;28;20100;-62
2021/04/27 05:11:40;;;;;;;20.65;12.77;;;;;;;6.94;100.00;101447.81;5012282;28;20038;-62
2021/04/27 05:14:05;;;;;;;20.08;13.45;;;;;;;6.93;100.00;101448.81;5012114;28;20559;-63
2021/04/27 05:16:31;;;;;;;18.77;13.65;;;;;;;6.92;100.00;101443.59;5012202;28;20133;-62
2021/04/27 05:18:58;;;;;;;19.85;13.25;;;;;;;6.90;100.00;101443.78;5012148;28;20046;-60
2021/04/27 05:21:24;;;;;;;18.65;13.05;;;;;;;6.88;100.00;101440.44;5012026;28;20046;-62
2021/04/27 05:23:50;;;;;;;20.92;13.23;;;;;;;6.87;100.00;101441.50;5011923;28;20048;-61
2021/04/27 05:26:15;;;;;;;21.98;14.32;;;;;;;6.86;100.00;101439.00;5012401;28;20049;-62
2021/04/27 05:28:41;;;;;;;19.55;14.02;;;;;;;6.85;100.00;101437.31;5011934;28;20121;-61
2021/04/27 05:31:07;;;;;;;22.88;12.55;;;;;;;6.85;100.00;101435.44;5011903;28;20046;-63
2021/04/27 05:33:32;;;;;;;22.10;13.75;;;;;;;6.85;100.00;101438.16;5011813;28;20037;-63
2021/04/27 05:35:58;;;;;;;19.55;12.52;;;;;;;6.85;100.00;101442.75;5011914;28;20098;-62
2021/04/27 05:38:25;;;;;;;22.90;12.90;;;;;;;6.83;100.00;101440.22;5011733;28;20036;-63
2021/04/27 05:40:50;;;;;;;16.70;12.35;;;;;;;6.81;100.00;101442.31;5011669;28;20042;-61
2021/04/27 05:43:16;;;;;;;18.80;12.45;;;;;;;6.81;100.00;101447.75;5011644;28;20061;-63
2021/04/27 05:45:43;;;;;;;19.00;12.57;;;;;;;6.82;100.00;101444.00;5011638;28;20038;-62
2021/04/27 05:48:09;;;;;;;19.58;12.52;;;;;;;6.83;100.00;101445.66;5011808;28;20117;-63
2021/04/27 05:50:36;;;;;;;16.58;12.15;;;;;;;6.86;100.00;101450.69;5011858;28;20400;-63
2021/04/27 05:53:02;;;;;;;16.08;11.30;;;;;;;6.85;100.00;101449.00;5011140;28;20116;-60
2021/04/27 05:55:28;;;;;;;16.38;12.00;;;;;;;6.86;100.00;101444.41;5011490;28;20042;-62
2021/04/27 05:57:54;;;;;;;22.95;12.80;;;;;;;6.89;100.00;101438.56;5011365;28;20065;-61
2021/04/27 06:00:21;;;;;;;20.38;13.32;;;;;;;6.90;100.00;101435.66;5011189;28;20161;-62
2021/04/27 06:02:47;;;;;;;23.70;14.57;;;;;;;6.91;100.00;101431.91;5011414;28;20101;-61
2021/04/27 06:05:13;;;;;;;21.27;14.93;;;;;;;6.92;100.00;101436.28;5011548;28;20037;-61
2021/04/27 06:07:39;;;;;;;22.65;15.07;;;;;;;6.94;100.00;101438.78;5011344;28;20087;-63
2021/04/27 06:10:06;;;;;;;24.85;15.02;;;;;;;6.93;100.00;101440.66;5011419;28;20057;-61
2021/04/27 06:12:33;;;;;;;25.80;14.77;;;;;;;6.94;100.00;101442.38;5011092;28;20046;-62
2021/04/27 06:14:59;;;;;;;23.40;14.38;;;;;;;6.98;100.00;101439.25;5011229;28;20033;-62
2021/04/27 06:17:24;;;;;;;21.38;14.02;;;;;;;6.99;100.00;101433.59;5011273;28;20049;-62
2021/04/27 06:19:50;;;;;;;21.85;14.18;;;;;;;7.01;100.00;101436.94;5011231;28;20034;-60
2021/04/27 06:22:16;;;;;;;20.98;14.02;;;;;;;7.02;100.00;101432.34;5011184;28;20472;-63
2021/04/27 06:24:42;;;;;;;23.77;13.90;;;;;;;7.09;100.00;101435.91;5011088;28;20044;-61
2021/04/27 06:27:08;;;;;;;21.75;13.38;;;;;;;7.11;100.00;101436.53;5011070;28;20037;-63
2021/04/27 06:29:34;;;;;;;21.35;13.55;;;;;;;7.15;100.00;101426.97;5010996;28;20038;-62
2021/04/27 06:32:04;;;;;;;23.58;14.45;;;;;;;7.20;100.00;101429.91;5025225;28;20129;-61
2021/04/27 06:34:30;;;;;;;24.52;14.43;;;;;;;7.26;100.00;101431.78;5010880;28;20611;-62
2021/04/27 06:36:56;;;;;;;19.83;14.07;;;;;;;7.31;100.00;101432.03;5011177;28;20038;-60
2021/04/27 06:39:22;;;;;;;20.90;13.63;;;;;;;7.35;100.00;101432.44;5010940;28;20411;-62
2021/04/27 06:41:48;;;;;;;21.73;15.15;;;;;;;7.42;100.00;101433.28;5010906;28;20046;-60
2021/04/27 06:44:13;;;;;;;22.17;14.20;;;;;;;7.47;100.00;101423.47;5011094;28;20612;-63
2021/04/27 06:46:39;;;;;;;19.23;14.27;;;;;;;7.52;100.00;101418.25;5011027;28;20053;-61
2021/04/27 06:49:04;;;;;;;20.55;13.95;;;;;;;7.58;100.00;101413.84;5010895;28;20037;-61
2021/04/27 06:51:30;;;;;;;21.75;13.88;;;;;;;7.67;100.00;101419.94;5010882;28;20400;-61
2021/04/27 06:53:57;;;;;;;24.75;15.60;;;;;;;7.70;100.00;101411.34;5010970;28;20396;-63
2021/04/27 06:56:22;;;;;;;19.70;13.82;;;;;;;7.77;100.00;101414.88;5010841;28;20038;-62
2021/04/27 06:58:48;;;;;;;21.08;14.38;;;;;;;7.82;100.00;101409.69;5010597;28;20111;-63
2021/04/27 07:01:14;;;;;;;21.00;14.63;;;;;;;7.88;100.00;101405.28;5009616;28;20388;-61
2021/04/27 07:03:43;;;;;;;20.13;12.65;;;;;;;7.96;100.00;101397.72;5011035;28;20496;-61
2021/04/27 07:06:08;;;;;;;22.30;14.45;;;;;;;8.04;100.00;101400.22;5014604;28;20042;-62
2021/04/27 07:08:34;;;;;;;23.60;14.80;;;;;;;8.10;100.00;101399.38;5014653;28;20034;-62
2021/04/27 07:11:00;;;;;;;19.10;13.85;;;;;;;8.16;100.00;101393.09;5013164;28;20395;-63
2021/04/27 07:13:29;;;;;;;20.80;13.98;;;;;;;8.25;100.00;101392.84;5029714;28;20453;-62
2021/04/27 07:15:55;;;;;;;21.00;14.30;;;;;;;8.34;100.00;101394.34;5014502;28;20054;-60
2021/04/27 07:18:20;;;;;;;23.05;15.10;;;;;;;8.44;100.00;101375.66;5014440;28;20038;-63
2021/04/27 07:20:46;;;;;;;20.63;14.80;;;;;;;8.54;100.00;101376.06;5014512;28;20558;-63
2021/04/27 07:23:13;;;;;;;19.35;13.07;;;;;;;8.64;100.00;101379.13;5014325;28;20080;-61
2021/04/27 07:25:38;;;;;;;20.70;14.30;;;;;;;8.73;100.00;101385.19;5014201;28;20044;-63
2021/04/27 07:28:05;;;;;;;22.48;14.13;;;;;;;8.79;100.00;101381.56;5014291;28;20038;-62
2021/04/27 07:30:35;;;;;;;20.25;13.30;;;;;;;8.90;100.00;101382.78;5014430;28;20034;-62
2021/04/27 07:33:00;;;;;;;22.38;14.05;;;;;;;9.04;100.00;101384.41;5014257;28;20128;-60
2021/04/27 07:35:27;;;;;;;22.33;15.05;;;;;;;9.16;100.00;101377.16;5014573;28;20380;-61
2021/04/27 07:37:52;;;;;;;23.25;15.05;;;;;;;9.28;100.00;101386.31;5014263;28;20037;-62
2021/04/27 07:40:19;;;;;;;22.05;14.57;;;;;;;9.41;100.00;101384.56;5014297;28;20121;-62
2021/04/27 07:42:45;;;;;;;24.60;14.15;;;;;;;9.53;100.00;101380.03;5013900;28;20131;-62
2021/04/27 07:45:12;;;;;;;20.65;14.63;;;;;;;9.65;100.00;101381.84;5013952;28;20085;-62
2021/04/27 07:47:38;;;;;;;22.45;14.30;;;;;;;9.76;100.00;101379.44;5010919;28;20042;-62
2021/04/27 07:50:08;;;;;;;24.45;15.80;;;;;;;9.86;100.00;101366.94;5011613;28;20038;-62
2021/04/27 07:52:35;;;;;;;18.55;14.13;;;;;;;10.00;100.00;101369.56;5013479;28;20121;-63
2021/04/27 07:55:02;;;;;;;21.27;15.48;;;;;;;10.12;100.00;101365.03;5012947;28;20053;-63
2021/04/27 07:57:28;;;;;;;19.65;14.52;;;;;;;10.23;100.00;101361.56;5012730;28;20025;-63
2021/04/27 07:59:54;;;;;;;27.08;16.42;;;;;;;10.33;100.00;101372.81;5013168;28;20571;-60
2021/04/27 08:02:20;;;;;;;22.67;15.30;;;;;;;10.42;100.00;101365.16;5013170;28;20045;-61
2021/04/27 08:04:46;;;;;;;25.58;15.05;;;;;;;10.53;100.00;101365.19;5013341;28;20443;-64
2021/04/27 08:07:13;;;;;;;21.02;15.52;;;;;;;10.65;100.00;101367.16;5012916;28;20172;-64
2021/04/27 08:09:40;;;;;;;23.45;14.65;;;;;;;10.77;100.00;101365.34;5013415;28;20061;-62
2021/04/27 08:12:06;;;;;;;23.15;15.68;;;;;;;10.83;100.00;101359.78;5013190;28;20037;-62
2021/04/27 08:14:32;;;;;;;23.58;14.40;;;;;;;10.92;100.00;101356.69;5012812;28;20041;-65
2021/04/27 08:16:58;;;;;;;21.80;14.80;;;;;;;11.03;100.00;101356.75;5012745;28;20396;-61
2021/04/27 08:19:24;;;;;;;18.05;13.73;;;;;;;11.12;100.00;101360.84;5012588;28;20555;-63
2021/04/27 08:21:49;;;;;;;23.60;14.75;;;;;;;11.25;100.00;101353.47;5012700;28;20046;-66
2021/04/27 08:24:16;;;;;;;17.67;13.35;;;;;;;11.37;100.00;101346.13;5013540;28;20037;-62
2021/04/27 08:26:43;;;;;;;19.63;10.95;;;;;;;11.50;100.00;101340.47;5012493;28;20384;-65
2021/04/27 08:29:09;;;;;;;19.17;12.32;;;;;;;11.64;100.00;101341.91;5011383;28;20459;-64
2021/04/27 08:31:35;;;;;;;19.25;12.05;;;;;;;11.77;100.00;101336.19;5012803;28;20033;-61
2021/04/27 08:34:01;;;;;;;18.95;12.60;;;;;;;11.91;100.00;101335.97;5012695;28;20042;-62
2021/04/27 08:36:27;;;;;;;19.77;14.23;;;;;;;12.07;100.00;101332.50;5012604;28;20037;-62
2021/04/27 08:38:53;;;;;;;18.92;12.05;;;;;;;12.19;100.00;101327.84;5012885;28;20060;-63
2021/04/27 08:41:23;;;;;;;19.70;13.95;;;;;;;12.31;100.00;101325.91;5012307;28;20038;-61
2021/04/27 08:43:49;;;;;;;20.05;14.13;;;;;;;12.41;100.00;101329.94;5012544;28;20385;-66
2021/04/27 08:46:15;;;;;;;20.55;13.70;;;;;;;12.44;100.00;101323.97;5011896;28;20045;-63
2021/04/27 08:48:42;;;;;;;20.73;14.70;;;;;;;12.52;100.00;101326.34;5012733;28;20034;-65
2021/04/27 08:51:08;;;;;;;21.30;15.05;;;;;;;12.58;100.00;101325.38;5011035;28;20529;-63
2021/04/27 08:53:33;;;;;;;16.77;13.40;;;;;;;12.64;100.00;101324.38;5012483;28;20149;-65
2021/04/27 08:55:59;;;;;;;16.60;12.40;;;;;;;12.74;100.00;101321.84;5012578;28;20037;-65
2021/04/27 08:58:25;;;;;;;20.10;13.50;;;;;;;12.82;100.00;101315.13;5012622;28;20195;-61
2021/04/27 09:00:50;;;;;;;17.17;13.90;;;;;;;12.88;100.00;101315.00;5012006;28;20054;-62
2021/04/27 09:03:16;;;;;;;18.20;14.07;;;;;;;12.99;100.00;101310.50;5012345;28;20496;-64
2021/04/27 09:05:44;;;;;;;17.13;13.48;;;;;;;13.09;100.00;101301.66;5012280;28;20052;-63
2021/04/27 09:08:11;;;;;;;20.90;12.48;;;;;;;13.14;100.00;101307.22;5012166;28;20188;-64
2021/04/27 09:10:43;;;;;;;18.77;13.52;;;;;;;13.20;100.00;101303.53;5011721;28;20034;-62
2021/04/27 09:13:14;;;;;;;16.75;10.93;;;;;;;13.34;100.00;101302.09;5011944;28;20048;-63
2021/04/27 09:15:50;;;;;;;16.08;10.82;;;;;;;13.43;95.89;101295.13;5012226;28;20073;-63
2021/04/27 09:18:29;;;;;;;18.25;11.48;;;;;;;13.52;97.24;101299.09;5012433;28;20496;-63
2021/04/27 09:21:07;;;;;;;18.10;13.07;;;;;;;13.56;99.67;101294.78;5012323;28;20042;-65
2021/04/27 09:23:34;;;;;;;16.92;12.30;;;;;;;13.72;100.00;101300.50;5012049;28;20049;-63
2021/04/27 09:26:17;;;;;;;17.02;12.13;;;;;;;13.79;100.00;101299.25;5011758;28;20044;-64
2021/04/27 09:28:51;;;;;;;18.23;13.38;;;;;;;13.96;100.00;101290.97;5011650;28;20132;-63
2021/04/27 09:31:32;;;;;;;16.48;13.35;;;;;;;14.06;100.00;101271.88;5011914;28;20108;-61
2021/04/27 09:34:21;;;;;;;16.75;12.73;;;;;;;14.14;100.00;101278.84;5012124;28;20044;-63
2021/04/27 09:36:49;;;;;;;13.48;11.90;;;;;;;14.02;100.00;101278.94;5011711;28;20113;-63
2021/04/27 09:39:16;;;;;;;16.08;10.15;;;;;;;13.97;100.00;101278.88;5011697;28;20538;-63
2021/04/27 09:41:54;;;;;;;14.60;9.48;;;;;;;13.94;100.00;101271.16;5012131;28;20057;-64
2021/04/27 09:44:39;;;;;;;16.23;9.82;;;;;;;13.97;100.00;101272.56;5011554;28;20046;-62
2021/04/27 09:47:17;;;;;;;12.23;9.35;;;;;;;14.03;100.00;101272.38;5011447;28;20038;-62
2021/04/27 09:50:02;;;;;;;12.63;9.02;;;;;;;14.24;100.00;101261.66;5011480;28;20052;-62
2021/04/27 09:52:31;;;;;;;16.02;9.32;;;;;;;14.38;100.00;101262.91;5011387;28;20054;-64
2021/04/27 09:55:01;;;;;;;19.13;9.98;;;;;;;14.54;100.00;101255.69;5011571;28;20385;-65
2021/04/27 09:57:30;;;;;;;9.18;8.27;;;;;;;14.63;100.00;101249.50;5011633;28;20123;-63
2021/04/27 10:00:15;;;;;;;11.98;8.23;;;;;;;14.69;100.00;101247.63;5011235;28;20135;-63
2021/04/27 10:02:41;;;;;;;13.38;9.52;;;;;;;14.83;100.00;101237.03;5011212;28;20052;-62
2021/04/27 10:05:08;;;;;;;11.18;8.57;;;;;;;14.96;100.00;101242.09;5011401;28;20054;-62
2021/04/27 10:07:34;;;;;;;11.02;8.82;;;;;;;15.08;100.00;101242.75;5011244;28;20048;-64
2021/04/27 10:09:59;;;;;;;13.32;9.40;;;;;;;15.09;100.00;101230.66;5011323;28;20065;-62
2021/04/27 10:12:25;;;;;;;12.27;9.20;;;;;;;15.01;100.00;101231.13;5011371;28;20038;-62
2021/04/27 10:14:51;;;;;;;14.73;9.25;;;;;;;15.20;100.00;101237.91;5011208;28;20049;-63
2021/04/27 10:17:19;;;;;;;12.85;9.27;;;;;;;15.39;100.00;101230.88;5026381;28;20041;-64
2021/04/27 10:19:45;;;;;;;10.90;8.77;;;;;;;15.42;99.12;101228.69;5011066;28;20046;-63
2021/04/27 10:22:12;;;;;;;11.88;8.98;;;;;;;15.38;98.85;101234.72;5011193;28;20049;-61
2021/04/27 10:24:38;;;;;;;10.10;9.10;;;;;;;15.31;100.00;101220.38;5011088;28;20567;-66
2021/04/27 10:27:05;;;;;;;15.52;9.68;;;;;;;15.26;100.00;101217.56;5010891;28;20042;-63
2021/04/27 10:29:31;;;;;;;12.02;8.30;;;;;;;15.19;100.00;101214.22;5010926;28;20046;-63
2021/04/27 10:32:20;;;;;;;15.07;8.77;;;;;;;15.02;100.00;101219.03;5011008;28;20037;-66
2021/04/27 10:35:06;;;;;;;12.63;8.93;;;;;;;14.86;100.00;101220.00;5010972;28;20030;-64
2021/04/27 10:37:59;;;;;;;10.48;9.27;;;;;;;15.00;100.00;101210.22;5010992;28;20033;-62
2021/04/27 10:40:45;;;;;;;12.95;9.13;;;;;;;15.12;100.00;101210.88;5015034;28;20053;-63
2021/04/27 10:43:26;;;;;;;12.32;9.68;;;;;;;15.23;100.00;101207.09;5014989;28;20396;-64
2021/04/27 10:46:02;;;;;;;13.90;9.13;;;;;;;15.37;100.00;101201.97;5015169;28;20065;-65
2021/04/27 10:48:30;;;;;;;11.98;9.02;;;;;;;15.53;100.00;101200.13;5014981;28;20048;-64
2021/04/27 10:50:59;;;;;;;11.77;9.48;;;;;;;15.67;100.00;101204.13;5014924;28;20088;-63
2021/04/27 10:53:35;;;;;;;13.27;9.57;;;;;;;15.74;99.29;101204.69;5014847;28;20117;-64
2021/04/27 10:56:03;;;;;;;17.40;10.27;;;;;;;16.03;97.87;101196.00;5014725;28;20034;-65
2021/04/27 10:58:47;;;;;;;12.65;10.02;;;;;;;16.01;97.71;101195.44;5014699;28;20045;-64
2021/04/27 11:01:21;;;;;;;13.82;9.80;;;;;;;16.09;96.88;101200.44;5014971;28;20056;-63
2021/04/27 11:03:51;;;;;;;16.42;10.20;;;;;;;16.15;96.04;101188.34;5015056;28;20034;-62
2021/04/27 11:06:17;;;;;;;13.55;10.40;;;;;;;16.10;94.51;101191.06;5014599;28;20064;-65
2021/04/27 11:08:45;;;;;;;14.85;11.35;;;;;;;16.00;96.06;101180.03;5014569;28;20034;-63
2021/04/27 11:11:30;;;;;;;14.10;10.43;;;;;;;15.78;97.10;101182.94;5014463;28;20042;-65
2021/04/27 11:14:22;;;;;;;20.20;11.20;;;;;;;15.71;100.00;101188.72;5014451;28;20038;-63